Time;durP1;ratioP1;P1;durP2;ratioP2;P2;SDS_P1;SDS_P2;PMS_P1;PMS_P2;Temp;Humidity;BMP_temperature;BMP_pressure;BME280_temperature;BME280_humidity;BME280_pressure;Samples;Min_cycle;Max_cycle;Signal;HPM_P1;HPM_P2
2021/05/17 00:01:56;;;;;;;17.92;3.63;;;;;;;11.54;100.00;100449.91;5070950;28;20043;-63
2021/05/17 00:04:32;;;;;;;15.55;3.83;;;;;;;11.53;100.00;100445.53;5069658;28;20494;-62
2021/05/17 00:06:59;;;;;;;13.45;2.97;;;;;;;11.52;100.00;100446.63;5070759;28;20064;-62
2021/05/17 00:09:25;;;;;;;22.70;3.67;;;;;;;11.53;100.00;100448.25;5070949;28;20054;-61
2021/05/17 00:11:52;;;;;;;16.75;3.22;;;;;;;11.52;100.00;100449.34;5070839;28;20115;-61
2021/05/17 00:14:19;;;;;;;13.30;3.67;;;;;;;11.51;100.00;100455.91;5070767;28;20043;-62
2021/05/17 00:16:45;;;;;;;14.52;3.35;;;;;;;11.50;100.00;100459.72;5070757;28;20040;-61
2021/05/17 00:19:12;;;;;;;14.60;3.15;;;;;;;11.50;100.00;100454.25;5070988;28;20039;-61
2021/05/17 00:21:39;;;;;;;27.10;4.25;;;;;;;11.51;100.00;100461.38;5070752;28;20040;-61
2021/05/17 00:24:06;;;;;;;18.23;3.85;;;;;;;11.51;100.00;100455.91;5070703;28;20067;-61
2021/05/17 00:26:32;;;;;;;17.65;3.05;;;;;;;11.52;100.00;100463.03;5070619;28;20395;-61
2021/05/17 00:28:58;;;;;;;15.43;3.50;;;;;;;11.54;100.00;100460.84;5070616;28;20085;-62
2021/05/17 00:31:23;;;;;;;19.05;3.92;;;;;;;11.53;100.00;100459.19;5070640;28;20049;-62
2021/05/17 00:33:49;;;;;;;18.17;3.97;;;;;;;11.52;100.00;100457.56;5070559;28;20032;-63
2021/05/17 00:36:17;;;;;;;17.92;3.45;;;;;;;11.52;100.00;100462.19;5070811;28;20120;-62
2021/05/17 00:38:43;;;;;;;17.83;3.80;;;;;;;11.54;100.00;100460.03;5070797;28;20032;-61
2021/05/17 00:41:09;;;;;;;18.73;3.63;;;;;;;11.52;100.00;100457.56;5070680;28;20059;-61
2021/05/17 00:43:37;;;;;;;18.60;3.88;;;;;;;11.53;100.00;100463.84;5070403;28;20060;-62
2021/05/17 00:46:07;;;;;;;21.02;3.65;;;;;;;11.52;100.00;100463.03;5070471;28;20050;-61
2021/05/17 00:48:34;;;;;;;24.70;4.68;;;;;;;11.50;100.00;100459.72;5072687;28;20037;-61
2021/05/17 00:51:02;;;;;;;18.42;3.70;;;;;;;11.50;100.00;100465.19;5074544;28;20046;-63
2021/05/17 00:53:28;;;;;;;20.88;3.92;;;;;;;11.49;100.00;100469.00;5074547;28;20029;-60
2021/05/17 00:55:54;;;;;;;25.02;3.20;;;;;;;11.47;100.00;100473.91;5073222;28;20033;-61
2021/05/17 00:58:19;;;;;;;26.35;5.20;;;;;;;11.45;100.00;100471.44;5074512;28;20047;-62
2021/05/17 01:00:45;;;;;;;16.73;3.65;;;;;;;11.44;100.00;100471.66;5074347;28;20033;-61
2021/05/17 01:03:12;;;;;;;18.35;3.85;;;;;;;11.42;100.00;100473.84;5074178;28;20059;-61
2021/05/17 01:05:38;;;;;;;22.83;4.47;;;;;;;11.42;100.00;100473.84;5074249;28;20491;-60
2021/05/17 01:08:07;;;;;;;16.90;4.00;;;;;;;11.42;100.00;100476.56;5074138;28;20102;-63
2021/05/17 01:10:41;;;;;;;23.83;4.28;;;;;;;11.40;100.00;100481.47;5074209;28;20487;-61
2021/05/17 01:13:08;;;;;;;17.20;3.28;;;;;;;11.39;100.00;100480.66;5074210;28;20471;-63
2021/05/17 01:15:34;;;;;;;12.48;2.85;;;;;;;11.38;100.00;100483.66;5074191;28;20390;-65
2021/05/17 01:18:00;;;;;;;20.45;4.63;;;;;;;11.35;100.00;100484.16;5073995;28;20479;-63
2021/05/17 01:20:30;;;;;;;20.45;3.85;;;;;;;11.33;100.00;100491.78;5073947;28;20379;-63
2021/05/17 01:25:52;;;;;;;18.23;3.95;;;;;;;11.28;100.00;100489.84;5073850;28;20040;-61
2021/05/17 01:28:23;;;;;;;17.85;5.03;;;;;;;11.26;100.00;100491.16;5074097;28;20729;-61
2021/05/17 01:30:56;;;;;;;23.10;4.97;;;;;;;11.25;100.00;100492.22;5073985;28;20039;-61
2021/05/17 01:33:22;;;;;;;19.92;3.83;;;;;;;11.23;100.00;100486.19;5073883;28;20028;-60
2021/05/17 01:35:48;;;;;;;23.17;5.45;;;;;;;11.21;100.00;100482.91;5073631;28;20043;-62
2021/05/17 01:38:18;;;;;;;16.00;4.18;;;;;;;11.18;100.00;100496.00;5073729;28;20051;-60
2021/05/17 01:40:46;;;;;;;19.63;4.78;;;;;;;11.17;100.00;100497.06;5073796;28;20498;-62
2021/05/17 01:43:14;;;;;;;21.40;5.07;;;;;;;11.15;100.00;100491.03;5073555;28;20083;-63
2021/05/17 01:45:40;;;;;;;17.75;4.63;;;;;;;11.14;100.00;100494.03;5072279;28;20461;-61
2021/05/17 01:48:06;;;;;;;32.10;4.80;;;;;;;11.12;100.00;100497.03;5073879;28;20082;-62
2021/05/17 01:50:36;;;;;;;18.38;4.75;;;;;;;11.11;100.00;100497.28;5073791;28;20036;-61
2021/05/17 01:53:03;;;;;;;25.52;5.28;;;;;;;11.08;100.00;100495.03;5073890;28;20054;-61
2021/05/17 01:55:29;;;;;;;18.13;4.25;;;;;;;11.08;100.00;100506.78;5073671;28;20032;-61
2021/05/17 01:58:13;;;;;;;15.50;4.05;;;;;;;11.06;100.00;100503.47;5072248;28;20398;-61
2021/05/17 02:00:42;;;;;;;33.35;5.25;;;;;;;11.05;100.00;100507.31;5073428;28;20048;-61
2021/05/17 02:03:08;;;;;;;19.58;4.65;;;;;;;11.03;100.00;100504.00;5073578;28;20105;-62
2021/05/17 02:05:35;;;;;;;21.73;4.70;;;;;;;11.02;100.00;100515.19;5073392;28;20051;-61
2021/05/17 02:08:02;;;;;;;27.30;5.00;;;;;;;11.00;100.00;100515.44;5073125;28;20102;-60
2021/05/17 02:10:28;;;;;;;21.77;4.47;;;;;;;10.98;100.00;100512.13;5073215;28;20067;-62
2021/05/17 02:12:56;;;;;;;31.33;5.60;;;;;;;10.98;100.00;100528.53;5073057;28;20115;-61
2021/05/17 02:15:23;;;;;;;22.00;4.38;;;;;;;10.96;100.00;100527.97;5072910;28;20032;-62
2021/05/17 02:18:05;;;;;;;17.42;4.60;;;;;;;10.94;100.00;100532.03;5072969;28;20040;-61
2021/05/17 02:20:34;;;;;;;21.75;4.93;;;;;;;10.92;100.00;100536.91;5073151;28;20573;-62
2021/05/17 02:23:05;;;;;;;20.63;4.78;;;;;;;10.89;100.00;100532.75;5072927;28;20064;-62
2021/05/17 02:25:31;;;;;;;19.67;5.00;;;;;;;10.87;100.00;100543.94;5072975;28;20039;-62
2021/05/17 02:27:57;;;;;;;21.30;5.00;;;;;;;10.85;100.00;100539.81;5072702;28;20090;-61
2021/05/17 02:30:24;;;;;;;21.80;4.90;;;;;;;10.81;100.00;100533.22;5072671;28;20040;-61
2021/05/17 02:32:51;;;;;;;23.95;5.18;;;;;;;10.79;100.00;100540.84;5072620;28;20040;-61
2021/05/17 02:35:20;;;;;;;18.30;5.50;;;;;;;10.77;100.00;100543.00;5072605;28;20043;-61
2021/05/17 02:37:47;;;;;;;22.83;4.75;;;;;;;10.76;100.00;100541.31;5072670;28;20037;-60
2021/05/17 02:40:13;;;;;;;19.38;4.68;;;;;;;10.72;100.00;100551.91;5072683;28;20036;-61
2021/05/17 02:42:43;;;;;;;26.25;5.05;;;;;;;10.72;100.00;100562.00;5072584;28;20036;-61
2021/05/17 02:45:10;;;;;;;25.33;4.85;;;;;;;10.70;100.00;100558.72;5072449;28;20068;-61
2021/05/17 02:47:37;;;;;;;26.98;5.63;;;;;;;10.68;100.00;100567.16;5072560;28;20118;-60
2021/05/17 02:50:10;;;;;;;19.15;5.07;;;;;;;10.67;100.00;100572.88;5071079;28;20041;-61
2021/05/17 02:52:37;;;;;;;32.70;5.72;;;;;;;10.66;100.00;100573.94;5072354;28;20060;-61
2021/05/17 02:55:06;;;;;;;27.73;5.43;;;;;;;10.64;100.00;100576.09;5072057;28;20055;-64
2021/05/17 02:57:39;;;;;;;28.70;5.75;;;;;;;10.62;100.00;100573.63;5072518;28;20070;-63
2021/05/17 03:00:26;;;;;;;25.75;5.22;;;;;;;10.61;100.00;100582.06;5072342;28;20502;-62
2021/05/17 03:03:13;;;;;;;23.00;4.55;;;;;;;10.58;100.00;100583.38;5071893;28;20127;-63
2021/05/17 03:05:42;;;;;;;27.17;4.72;;;;;;;10.55;100.00;100584.69;5071840;28;20055;-62
2021/05/17 03:08:09;;;;;;;16.85;3.70;;;;;;;10.54;100.00;100583.03;5071913;28;20049;-61
2021/05/17 03:10:39;;;;;;;17.50;4.43;;;;;;;10.52;100.00;100587.94;5071462;28;20040;-61
2021/05/17 03:13:19;;;;;;;17.92;3.72;;;;;;;10.51;100.00;100594.47;5071831;28;20437;-61
2021/05/17 03:15:45;;;;;;;22.63;4.68;;;;;;;10.49;100.00;100596.63;5071882;28;20043;-61
2021/05/17 03:18:11;;;;;;;22.08;5.05;;;;;;;10.47;100.00;100593.31;5072037;28;20037;-62
2021/05/17 03:20:38;;;;;;;20.20;3.83;;;;;;;10.46;100.00;100591.66;5071665;28;20043;-61
2021/05/17 03:23:12;;;;;;;15.57;4.63;;;;;;;10.45;100.00;100600.94;5071615;28;20496;-62
2021/05/17 03:25:41;;;;;;;19.10;4.90;;;;;;;10.45;100.00;100600.94;5071712;28;20031;-63
2021/05/17 03:28:07;;;;;;;15.02;4.35;;;;;;;10.43;100.00;100608.53;5071580;28;20067;-62
2021/05/17 03:30:33;;;;;;;15.52;3.80;;;;;;;10.42;100.00;100609.63;5071479;28;20060;-63
2021/05/17 03:32:59;;;;;;;10.98;4.13;;;;;;;10.42;100.00;100616.97;5071580;28;20052;-62
2021/05/17 03:35:24;;;;;;;15.90;4.15;;;;;;;10.41;100.00;100615.31;5071616;28;20032;-62
2021/05/17 03:37:50;;;;;;;17.35;4.78;;;;;;;10.39;100.00;100631.09;5071455;28;20044;-61
2021/05/17 03:40:17;;;;;;;14.85;5.50;;;;;;;10.38;100.00;100635.72;5071313;28;20051;-61
2021/05/17 03:42:43;;;;;;;19.55;4.97;;;;;;;10.36;100.00;100635.16;5071192;28;20037;-60
2021/05/17 03:45:11;;;;;;;11.75;3.53;;;;;;;10.34;100.00;100634.56;5069958;28;20043;-62
2021/05/17 03:47:36;;;;;;;18.20;4.70;;;;;;;10.32;100.00;100644.09;5071226;28;20044;-61
2021/05/17 03:50:04;;;;;;;18.35;4.60;;;;;;;10.31;100.00;100646.00;5071293;28;20066;-61
2021/05/17 03:52:30;;;;;;;15.90;4.07;;;;;;;10.30;100.00;100658.00;5071358;28;20044;-63
2021/05/17 03:54:55;;;;;;;16.58;4.38;;;;;;;10.28;100.00;100654.69;5070966;28;20090;-61
2021/05/17 03:57:21;;;;;;;14.02;4.50;;;;;;;10.28;100.00;100660.13;5071033;28;20037;-61
2021/05/17 03:59:47;;;;;;;16.95;4.07;;;;;;;10.26;100.00;100667.75;5071494;28;20040;-60
2021/05/17 04:02:20;;;;;;;20.38;4.30;;;;;;;10.25;100.00;100677.00;5070987;28;20075;-62
2021/05/17 04:15:29;;;;;;;19.38;5.05;;;;;;;10.19;100.00;100672.47;5070921;28;20285;-61
2021/05/17 04:17:55;;;;;;;14.18;3.95;;;;;;;10.18;100.00;100681.75;5070820;28;20436;-63
2021/05/17 04:20:20;;;;;;;16.92;4.63;;;;;;;10.17;100.00;100680.09;5070824;28;20194;-63
2021/05/17 04:22:46;;;;;;;13.27;4.35;;;;;;;10.15;100.00;100690.41;5069796;28;20037;-61
2021/05/17 04:25:12;;;;;;;15.93;4.97;;;;;;;10.15;100.00;100685.78;5070907;28;20037;-60
2021/05/17 04:27:38;;;;;;;16.52;4.40;;;;;;;10.15;100.00;100682.22;5069882;28;20414;-62
2021/05/17 04:30:05;;;;;;;16.30;4.60;;;;;;;10.15;100.00;100690.41;5071011;28;20044;-63
2021/05/17 04:32:31;;;;;;;19.02;4.05;;;;;;;10.17;100.00;100701.91;5070920;28;20033;-61
2021/05/17 04:34:57;;;;;;;11.13;4.65;;;;;;;10.19;100.00;100705.22;5069533;28;20032;-62
2021/05/17 04:37:22;;;;;;;15.90;4.15;;;;;;;10.19;100.00;100706.06;5070883;28;20165;-62
2021/05/17 04:39:48;;;;;;;13.82;5.55;;;;;;;10.20;100.00;100706.88;5070890;28;20068;-61
2021/05/17 04:42:14;;;;;;;12.45;3.78;;;;;;;10.21;100.00;100719.50;5070904;28;20496;-63
2021/05/17 04:44:40;;;;;;;16.88;4.63;;;;;;;10.22;100.00;100715.69;5069581;28;20059;-61
2021/05/17 04:47:05;;;;;;;21.85;4.82;;;;;;;10.24;100.00;100719.03;5070913;28;20068;-63
2021/05/17 04:49:31;;;;;;;12.05;4.13;;;;;;;10.24;100.00;100719.84;5070768;28;20036;-61
2021/05/17 04:51:57;;;;;;;13.02;3.80;;;;;;;10.25;100.00;100720.69;5070760;28;20094;-62
2021/05/17 04:54:22;;;;;;;15.20;4.05;;;;;;;10.25;100.00;100731.59;5070776;28;20114;-62
2021/05/17 04:56:48;;;;;;;14.05;3.78;;;;;;;10.27;100.00;100734.91;5070785;28;20101;-63
2021/05/17 04:59:14;;;;;;;16.23;3.75;;;;;;;10.35;100.00;100725.50;5070783;28;20036;-61
2021/05/17 05:01:39;;;;;;;12.23;4.00;;;;;;;10.42;100.00;100726.19;5070643;28;20047;-61
2021/05/17 05:04:05;;;;;;;14.07;4.00;;;;;;;10.41;100.00;100722.63;5070628;28;20063;-61
2021/05/17 05:06:31;;;;;;;11.63;3.72;;;;;;;10.36;100.00;100732.59;5070501;28;20032;-62
2021/05/17 05:08:56;;;;;;;16.92;4.47;;;;;;;10.35;100.00;100742.72;5070331;28;20052;-62
2021/05/17 05:11:23;;;;;;;15.48;4.07;;;;;;;10.36;100.00;100743.53;5070456;28;20091;-61
2021/05/17 05:13:48;;;;;;;13.52;3.30;;;;;;;10.37;100.00;100751.47;5070489;28;20111;-63
2021/05/17 05:16:14;;;;;;;13.65;3.80;;;;;;;10.41;100.00;100758.13;5070400;28;20526;-63
2021/05/17 05:18:40;;;;;;;16.92;4.07;;;;;;;10.43;100.00;100766.91;5070646;28;20048;-62
2021/05/17 05:21:05;;;;;;;17.92;4.63;;;;;;;10.46;100.00;100755.50;5070627;28;20383;-62
2021/05/17 05:23:31;;;;;;;13.32;3.97;;;;;;;10.50;100.00;100767.56;5070315;28;20486;-61
2021/05/17 05:31:14;;;;;;;12.82;4.00;;;;;;;10.63;100.00;100776.56;5070391;28;20127;-62
2021/05/17 05:33:40;;;;;;;11.40;4.13;;;;;;;10.67;100.00;100788.66;5070795;28;20218;-61
2021/05/17 05:36:05;;;;;;;11.20;4.47;;;;;;;10.70;100.00;100793.63;5072796;28;20127;-62
2021/05/17 05:38:31;;;;;;;8.52;4.07;;;;;;;10.72;100.00;100796.94;5074124;28;20380;-60
2021/05/17 05:40:57;;;;;;;9.05;3.92;;;;;;;10.75;100.00;100797.25;5072592;28;20468;-63
2021/05/17 05:43:22;;;;;;;8.98;4.32;;;;;;;10.80;100.00;100804.75;5073737;28;20050;-63
2021/05/17 05:45:50;;;;;;;14.20;4.70;;;;;;;10.85;100.00;100807.56;5073724;28;20410;-63
2021/05/17 05:48:16;;;;;;;16.17;4.70;;;;;;;10.86;100.00;100814.69;5073689;28;20070;-63
2021/05/17 05:50:45;;;;;;;14.05;4.75;;;;;;;10.91;100.00;100806.56;5073625;28;20043;-62
2021/05/17 05:53:11;;;;;;;15.57;4.75;;;;;;;10.95;100.00;100812.41;5073852;28;20052;-63
2021/05/17 05:55:36;;;;;;;20.17;6.28;;;;;;;10.97;100.00;100819.28;5073553;28;20056;-63
2021/05/17 05:58:03;;;;;;;12.52;4.28;;;;;;;10.99;100.00;100830.78;5073384;28;20039;-62
2021/05/17 06:00:31;;;;;;;11.55;5.10;;;;;;;11.04;100.00;100833.63;5073687;28;20360;-62
2021/05/17 06:02:58;;;;;;;16.10;5.65;;;;;;;11.10;100.00;100835.34;5073166;28;20037;-62
2021/05/17 06:05:24;;;;;;;12.50;5.22;;;;;;;11.16;100.00;100842.59;5073194;28;20119;-62
2021/05/17 06:07:50;;;;;;;15.40;5.60;;;;;;;11.22;100.00;100845.41;5073033;28;20128;-64
2021/05/17 06:10:15;;;;;;;14.35;5.25;;;;;;;11.29;100.00;100851.56;5073309;28;20047;-62
2021/05/17 06:12:46;;;;;;;14.10;6.85;;;;;;;11.36;100.00;100847.59;5073181;28;20482;-63
2021/05/17 06:15:13;;;;;;;13.43;5.68;;;;;;;11.43;100.00;100847.41;5072973;28;20036;-63
2021/05/17 06:17:40;;;;;;;13.48;6.20;;;;;;;11.48;100.00;100850.25;5072999;28;20048;-62
2021/05/17 06:20:06;;;;;;;15.23;6.70;;;;;;;11.53;100.00;100858.53;5072962;28;20037;-64
2021/05/17 06:22:38;;;;;;;10.27;5.07;;;;;;;11.59;100.00;100865.75;5072760;28;20044;-61
2021/05/17 06:25:12;;;;;;;12.20;5.43;;;;;;;11.63;100.00;100869.66;5072806;28;20535;-62
2021/05/17 06:27:39;;;;;;;10.40;5.32;;;;;;;11.69;100.00;100867.81;5073037;28;20071;-64
2021/05/17 06:30:08;;;;;;;11.18;5.03;;;;;;;11.74;100.00;100871.47;5072853;28;20036;-62
2021/05/17 06:32:35;;;;;;;14.35;5.47;;;;;;;11.82;100.00;100877.66;5072718;28;20039;-63
2021/05/17 06:35:02;;;;;;;9.60;5.13;;;;;;;11.86;100.00;100873.31;5072829;28;20043;-63
2021/05/17 06:37:28;;;;;;;20.33;4.65;;;;;;;11.91;100.00;100876.13;5072677;28;20047;-63
2021/05/17 06:39:53;;;;;;;9.43;4.53;;;;;;;11.97;100.00;100883.31;5072554;28;20041;-62
2021/05/17 06:42:21;;;;;;;9.57;4.65;;;;;;;12.00;100.00;100891.91;5072447;28;20079;-65
2021/05/17 06:44:46;;;;;;;10.60;5.25;;;;;;;12.06;100.00;100896.34;5072376;28;20415;-62
2021/05/17 06:47:12;;;;;;;9.55;3.47;;;;;;;12.08;100.00;100893.38;5071874;28;20040;-63
2021/05/17 06:49:39;;;;;;;12.93;4.35;;;;;;;12.12;100.00;100900.00;5071081;28;20036;-63
2021/05/17 06:52:07;;;;;;;7.82;3.80;;;;;;;12.14;100.00;100892.34;5072293;28;20064;-63
2021/05/17 06:54:33;;;;;;;8.82;4.18;;;;;;;12.19;100.00;100900.66;5072136;28;20051;-63
2021/05/17 06:59:45;;;;;;;10.05;4.43;;;;;;;12.30;100.00;100896.13;5072173;28;20097;-65
2021/05/17 07:02:29;;;;;;;5.85;4.00;;;;;;;12.41;100.00;100902.59;5072650;28;20040;-65
2021/05/17 07:04:57;;;;;;;9.37;4.23;;;;;;;12.52;100.00;100901.66;5072158;28;20040;-61
2021/05/17 07:11:34;;;;;;;9.82;4.40;;;;;;;12.54;100.00;100899.50;5072025;28;20068;-62
2021/05/17 07:13:02;;;;;;;8.20;3.97;;;;;;;12.59;100.00;100910.53;5071876;28;20044;-61
2021/05/17 07:15:28;;;;;;;15.40;5.10;;;;;;;12.66;100.00;100917.47;5072008;28;20041;-61
2021/05/17 07:17:53;;;;;;;9.57;4.32;;;;;;;12.79;100.00;100910.78;5071828;28;20036;-63
2021/05/17 07:20:25;;;;;;;9.65;4.35;;;;;;;12.85;100.00;100919.91;5070499;28;20090;-63
2021/05/17 07:25:35;;;;;;;10.87;4.70;;;;;;;12.95;100.00;100920.84;5071664;28;20041;-63
2021/05/17 07:28:01;;;;;;;9.98;4.00;;;;;;;13.03;100.00;100922.31;5071624;28;20460;-62
2021/05/17 07:30:27;;;;;;;6.47;3.70;;;;;;;13.11;100.00;100919.13;5071491;28;20029;-65
2021/05/17 07:32:53;;;;;;;11.70;3.55;;;;;;;13.18;100.00;100925.25;5071466;28;20029;-63
2021/05/17 07:35:19;;;;;;;6.18;3.25;;;;;;;13.20;100.00;100922.28;5071553;28;20106;-63
2021/05/17 07:37:46;;;;;;;7.00;3.00;;;;;;;13.22;100.00;100936.56;5071529;28;20060;-63
2021/05/17 07:40:12;;;;;;;9.48;3.45;;;;;;;13.34;100.00;100934.47;5071585;28;20510;-65
2021/05/17 07:42:37;;;;;;;9.77;3.60;;;;;;;13.36;100.00;100931.47;5071192;28;20075;-64
2021/05/17 07:45:04;;;;;;;5.55;3.58;;;;;;;13.34;100.00;100923.50;5071240;28;20068;-64
2021/05/17 07:47:30;;;;;;;11.43;3.88;;;;;;;13.33;100.00;100941.03;5071239;28;20040;-63
2021/05/17 07:49:56;;;;;;;18.00;4.75;;;;;;;13.28;100.00;100930.84;5071300;28;20082;-62
2021/05/17 07:52:22;;;;;;;16.88;4.63;;;;;;;13.25;100.00;100936.84;5071208;28;20123;-62
2021/05/17 07:54:48;;;;;;;15.18;4.03;;;;;;;13.20;100.00;100930.50;5071145;28;20024;-65
2021/05/17 07:57:14;;;;;;;14.98;4.25;;;;;;;13.20;100.00;100935.97;5070994;28;20375;-63
2021/05/17 07:59:40;;;;;;;8.15;3.55;;;;;;;13.14;100.00;100931.47;5071010;28;20624;-61
2021/05/17 08:02:06;;;;;;;9.50;3.63;;;;;;;13.15;100.00;100941.34;5070893;28;20115;-64
2021/05/17 08:04:32;;;;;;;8.73;3.53;;;;;;;13.16;100.00;100934.78;5070800;28;20071;-63
2021/05/17 08:06:57;;;;;;;8.18;3.47;;;;;;;13.20;100.00;100933.25;5070919;28;20040;-63
2021/05/17 08:09:23;;;;;;;4.18;2.47;;;;;;;13.40;100.00;100943.59;5070768;28;20056;-62
2021/05/17 08:11:50;;;;;;;7.90;2.70;;;;;;;13.38;100.00;100930.16;5069608;28;20509;-63
2021/05/17 08:14:17;;;;;;;6.88;2.83;;;;;;;13.50;100.00;100941.78;5067972;28;20036;-66
2021/05/17 08:16:44;;;;;;;9.85;3.15;;;;;;;13.66;100.00;100941.91;5051268;28;20081;-64
2021/05/17 08:19:10;;;;;;;9.13;2.97;;;;;;;13.85;100.00;100941.28;5050664;28;20360;-63
2021/05/17 08:21:36;;;;;;;7.35;3.00;;;;;;;14.03;100.00;100945.53;5056733;28;20039;-64
2021/05/17 08:24:01;;;;;;;8.77;2.75;;;;;;;14.00;100.00;100957.06;5071005;28;20503;-66
2021/05/17 08:26:27;;;;;;;7.90;3.10;;;;;;;13.97;100.00;100965.00;5068682;28;20493;-63
2021/05/17 08:28:54;;;;;;;6.93;2.65;;;;;;;13.95;100.00;100950.69;5070120;28;20147;-66
2021/05/17 08:31:22;;;;;;;7.25;2.40;;;;;;;13.84;100.00;100972.56;5070388;28;20039;-66
2021/05/17 08:33:48;;;;;;;7.78;2.83;;;;;;;13.79;100.00;100974.44;5055079;28;20029;-64
2021/05/17 08:36:14;;;;;;;5.15;2.55;;;;;;;13.76;100.00;100969.47;5055683;28;20032;-65
2021/05/17 08:38:41;;;;;;;10.63;2.58;;;;;;;13.73;100.00;100968.09;5068802;28;20047;-65
2021/05/17 08:41:08;;;;;;;9.13;2.50;;;;;;;13.78;100.00;100975.53;5068519;28;20040;-63
2021/05/17 08:43:38;;;;;;;6.80;2.28;;;;;;;13.83;100.00;100970.91;5070318;28;20094;-63
2021/05/17 08:46:04;;;;;;;6.45;2.63;;;;;;;14.04;100.00;100977.41;5069039;28;20444;-66
2021/05/17 08:48:29;;;;;;;6.70;2.67;;;;;;;14.08;100.00;100981.31;5064692;28;20028;-65
2021/05/17 08:50:55;;;;;;;6.18;2.72;;;;;;;14.18;100.00;100989.63;5058789;28;20371;-63
2021/05/17 08:53:21;;;;;;;7.28;2.40;;;;;;;14.17;100.00;100993.44;5055907;28;20044;-65
2021/05/17 08:55:47;;;;;;;4.55;2.58;;;;;;;14.18;100.00;100989.63;5049941;28;20048;-62
2021/05/17 08:58:12;;;;;;;6.60;2.28;;;;;;;14.28;100.00;101004.53;5050120;28;20098;-66
2021/05/17 09:00:40;;;;;;;11.20;3.80;;;;;;;14.14;100.00;100991.22;5050119;28;20041;-64
2021/05/17 09:03:05;;;;;;;8.40;2.88;;;;;;;14.17;100.00;100993.44;5050227;28;20064;-65
2021/05/17 09:05:33;;;;;;;5.57;1.95;;;;;;;14.18;100.00;100994.28;5050192;28;20479;-66
2021/05/17 09:08:03;;;;;;;5.45;2.80;;;;;;;14.19;100.00;101002.25;5050064;28;20037;-62
2021/05/17 09:10:35;;;;;;;6.47;2.50;;;;;;;14.24;100.00;100997.91;5054315;28;20036;-64
2021/05/17 09:13:14;;;;;;;5.38;2.13;;;;;;;14.33;100.00;100999.91;5053959;28;20033;-62
2021/05/17 09:15:42;;;;;;;5.15;2.40;;;;;;;14.44;100.00;101003.59;5052629;28;20041;-65
2021/05/17 09:18:13;;;;;;;9.13;2.85;;;;;;;14.58;100.00;101010.28;5053931;28;20043;-66
2021/05/17 09:20:40;;;;;;;7.60;2.13;;;;;;;14.65;100.00;101010.88;5052870;28;20502;-64
2021/05/17 09:23:14;;;;;;;4.03;2.20;;;;;;;14.82;100.00;101012.63;5053770;28;20029;-64
2021/05/17 09:26:00;;;;;;;7.40;2.40;;;;;;;14.85;100.00;101020.34;5054077;28;20051;-65
2021/05/17 09:28:31;;;;;;;4.38;2.75;;;;;;;14.80;100.00;101012.06;5053903;28;20278;-64
2021/05/17 09:31:05;;;;;;;4.65;2.15;;;;;;;14.73;100.00;101015.03;5055778;28;20036;-63
2021/05/17 09:33:49;;;;;;;4.32;1.98;;;;;;;14.65;100.00;101010.88;5064471;28;20478;-63
2021/05/17 09:36:39;;;;;;;2.80;1.85;;;;;;;14.62;100.00;101011.41;5053398;28;20033;-63
2021/05/17 09:39:12;;;;;;;8.50;3.55;;;;;;;14.69;100.00;101022.16;5053710;28;20098;-64
2021/05/17 09:41:41;;;;;;;9.43;4.87;;;;;;;14.76;100.00;101012.59;5062581;28;20074;-64
2021/05/17 09:44:08;;;;;;;5.97;3.08;;;;;;;15.22;100.00;101029.31;5067670;28;20867;-66
2021/05/17 09:47:02;;;;;;;4.55;2.45;;;;;;;15.26;100.00;101027.69;5053740;28;20033;-65
2021/05/17 09:49:36;;;;;;;41.65;5.35;;;;;;;14.97;100.00;101045.72;5053260;28;20112;-64
2021/05/17 09:52:27;;;;;;;20.42;4.72;;;;;;;14.64;100.00;101053.22;5053408;28;20071;-65
2021/05/17 09:54:57;;;;;;;17.58;6.15;;;;;;;14.44;100.00;101053.88;5052949;28;20455;-66
2021/05/17 09:57:24;;;;;;;10.55;4.22;;;;;;;14.21;100.00;101064.34;5053383;28;20031;-65
2021/05/17 09:59:52;;;;;;;7.40;3.50;;;;;;;14.03;100.00;101063.63;5053688;28;20083;-64
2021/05/17 10:02:29;;;;;;;9.98;2.28;;;;;;;13.84;100.00;101089.78;5053588;28;20122;-65
2021/05/17 10:05:18;;;;;;;4.18;1.73;;;;;;;13.54;100.00;101091.13;5053377;28;20072;-63
2021/05/17 10:07:46;;;;;;;1.67;0.90;;;;;;;13.25;100.00;101089.63;5053298;28;20033;-65
2021/05/17 10:10:12;;;;;;;3.42;1.35;;;;;;;13.08;100.00;101091.56;5053297;28;20048;-65
2021/05/17 10:12:39;;;;;;;1.55;0.82;;;;;;;12.90;100.00;101109.97;5085408;28;20484;-63
2021/05/17 10:15:12;;;;;;;1.80;0.95;;;;;;;12.67;100.00;101116.47;5053235;28;20167;-64
2021/05/17 10:17:39;;;;;;;2.10;0.75;;;;;;;12.56;100.00;101119.28;5053172;28;20040;-66
2021/05/17 10:20:08;;;;;;;5.85;1.13;;;;;;;12.41;100.00;101133.53;5052304;28;20033;-64
2021/05/17 10:22:34;;;;;;;5.78;1.75;;;;;;;12.34;100.00;101128.22;5052445;28;20044;-70
2021/05/17 10:25:03;;;;;;;21.88;2.58;;;;;;;12.31;100.00;101128.69;5061279;28;20407;-65
2021/05/17 10:27:30;;;;;;;5.13;1.27;;;;;;;12.26;100.00;101120.41;5061967;28;20028;-65
2021/05/17 10:30:09;;;;;;;2.03;1.08;;;;;;;12.21;100.00;101123.06;5072771;28;20037;-66
2021/05/17 10:32:46;;;;;;;3.70;0.90;;;;;;;12.19;100.00;101127.94;5072858;28;20052;-68
2021/05/17 10:35:18;;;;;;;2.78;0.98;;;;;;;12.17;100.00;101127.38;5072868;28;20024;-66
2021/05/17 10:37:46;;;;;;;3.97;0.85;;;;;;;12.15;100.00;101132.25;5070889;28;20036;-67
2021/05/17 10:40:40;;;;;;;4.38;0.85;;;;;;;12.12;100.00;101140.94;5072347;28;20387;-65
2021/05/17 10:43:17;;;;;;;13.60;2.35;;;;;;;12.14;100.00;101138.78;5069649;28;20044;-67
2021/05/17 10:48:25;;;;;;;2.10;1.42;;;;;;;12.37;100.00;101149.63;5052641;28;20471;-67
2021/05/17 10:51:18;;;;;;;1.35;1.25;;;;;;;12.48;100.00;101149.78;5053501;28;20028;-65
2021/05/17 10:53:46;;;;;;;2.22;1.15;;;;;;;12.49;100.00;101151.47;5061900;28;20371;-65
2021/05/17 10:56:38;;;;;;;2.63;0.70;;;;;;;12.48;100.00;101144.31;5072353;28;20055;-65
2021/05/17 11:01:57;;;;;;;2.85;0.80;;;;;;;12.37;100.00;101146.91;5072237;28;20505;-65
2021/05/17 11:04:35;;;;;;;3.15;0.80;;;;;;;12.37;100.00;101157.84;5071622;28;20462;-64
2021/05/17 11:07:28;;;;;;;1.42;0.93;;;;;;;12.36;100.00;101153.44;5071903;28;20054;-64
2021/05/17 11:10:16;;;;;;;1.88;1.20;;;;;;;12.35;100.00;101162.75;5071690;28;20048;-66
2021/05/17 11:12:44;;;;;;;1.27;1.00;;;;;;;12.33;100.00;101156.69;5068648;28;20028;-66
2021/05/17 11:15:10;;;;;;;2.75;1.17;;;;;;;12.42;100.00;101167.22;5051775;28;20029;-66
2021/05/17 11:17:51;;;;;;;2.55;1.20;;;;;;;12.60;100.00;101172.50;5051846;28;20395;-65
2021/05/17 11:20:41;;;;;;;2.35;1.48;;;;;;;12.79;100.00;101187.63;5051761;28;20041;-64
2021/05/17 11:23:09;;;;;;;2.08;1.83;;;;;;;12.99;100.00;101185.22;5051985;28;20029;-66
2021/05/17 11:25:55;;;;;;;1.80;1.27;;;;;;;13.14;100.00;101181.03;5050873;28;20030;-66
2021/05/17 11:28:42;;;;;;;2.33;1.50;;;;;;;13.25;100.00;101189.22;5059394;28;20035;-67
2021/05/17 11:31:23;;;;;;;1.85;1.00;;;;;;;13.33;100.00;101173.41;5071368;28;20032;-65
2021/05/17 11:34:01;;;;;;;1.20;0.98;;;;;;;13.39;100.00;101175.97;5057352;28;20391;-64
2021/05/17 11:36:28;;;;;;;3.35;1.50;;;;;;;13.53;100.00;101174.50;5051083;28;20459;-65
2021/05/17 11:41:46;;;;;;;2.65;1.20;;;;;;;14.15;100.00;101179.69;5052590;28;20029;-65
2021/05/17 11:44:14;;;;;;;2.60;1.60;;;;;;;14.63;100.00;101171.69;5051395;28;20064;-65
2021/05/17 11:46:49;;;;;;;2.45;1.10;;;;;;;14.73;100.00;101178.09;5051203;28;20111;-64
2021/05/17 11:49:18;;;;;;;1.15;1.00;;;;;;;14.91;100.00;101187.88;5084236;28;20065;-65
2021/05/17 11:51:56;;;;;;;2.20;0.90;;;;;;;14.99;100.00;101170.06;5066741;28;20068;-65
2021/05/17 11:54:23;;;;;;;1.70;0.80;;;;;;;15.02;100.00;101175.03;5051282;28;20078;-64
2021/05/17 11:56:53;;;;;;;1.63;0.70;;;;;;;15.10;100.00;101177.31;5051108;28;20037;-65